Time,TemperatureF,DewpointF,PressureIn,WindDirection,WindDirectionDegrees,WindSpeedMPH,WindSpeedGustMPH,Humidity,HourlyPrecipIn,Conditions,Clouds,dailyrainin,SoftwareType,DateUTC
2013-09-03 00:12:00,58.0,55.0,29.97,NW,310,0.0,-999.0,90,-99.99,,,-99.99,,2013-09-03 05:12:00,
2013-09-03 00:23:00,57.0,54.0,29.97,NW,310,0.0,-999.0,90,-99.99,,,-99.99,,2013-09-03 05:23:00,
2013-09-03 00:43:00,57.0,54.0,29.97,NW,310,0.0,-999.0,91,-99.99,,,-99.99,,2013-09-03 05:43:00,
2013-09-03 00:52:00,56.0,54.0,29.97,NW,310,0.0,-999.0,92,-99.99,,,-99.99,,2013-09-03 05:52:00,
2013-09-03 01:12:00,56.0,54.0,29.98,NW,310,0.0,-999.0,93,-99.99,,,-99.99,,2013-09-03 06:12:00,
2013-09-03 01:22:00,55.0,53.0,29.97,NW,310,0.0,-999.0,93,-99.99,,,-99.99,,2013-09-03 06:22:00,
2013-09-03 01:52:00,54.0,52.0,29.97,NW,310,0.0,-999.0,94,-99.99,,,-99.99,,2013-09-03 06:52:00,
2013-09-03 02:12:00,54.0,52.0,29.97,NW,310,0.0,-999.0,94,-99.99,,,-99.99,,2013-09-03 07:12:00,
2013-09-03 02:22:00,53.0,52.0,29.98,NW,310,0.0,-999.0,95,-99.99,,,-99.99,,2013-09-03 07:22:00,
2013-09-03 02:52:00,53.0,52.0,29.98,NW,310,0.0,-999.0,96,-99.99,,,-99.99,,2013-09-03 07:52:00,
2013-09-03 03:11:00,52.0,51.0,29.98,NW,310,0.0,-999.0,95,-99.99,,,-99.99,,2013-09-03 08:11:00,
2013-09-03 03:22:00,52.0,51.0,29.99,NW,310,0.0,-999.0,96,-99.99,,,-99.99,,2013-09-03 08:22:00,
2013-09-03 03:52:00,51.0,50.0,29.99,NW,310,0.0,-999.0,96,-99.99,,,-99.99,,2013-09-03 08:52:00,
2013-09-03 04:11:00,50.0,49.0,29.99,NW,310,0.0,-999.0,96,-99.99,,,-99.99,,2013-09-03 09:11:00,
2013-09-03 04:21:00,50.0,49.0,30.00,NW,310,0.0,-999.0,96,-99.99,,,-99.99,,2013-09-03 09:21:00,
2013-09-03 04:43:00,50.0,49.0,30.00,NW,310,0.0,-999.0,96,-99.99,,,-99.99,,2013-09-03 09:43:00,
2013-09-03 04:53:00,50.0,49.0,30.00,NW,310,0.0,-999.0,97,-99.99,,,-99.99,,2013-09-03 09:53:00,
2013-09-03 05:13:00,50.0,49.0,30.01,NW,310,0.0,-999.0,96,-99.99,,,-99.99,,2013-09-03 10:13:00,
2013-09-03 05:23:00,50.0,49.0,30.01,NW,310,0.0,-999.0,97,-99.99,,,-99.99,,2013-09-03 10:23:00,
2013-09-03 05:42:00,50.0,49.0,30.01,NW,310,0.0,-999.0,97,-99.99,,,-99.99,,2013-09-03 10:42:00,
2013-09-03 05:53:00,50.0,49.0,30.02,NW,310,0.0,-999.0,97,-99.99,,,-99.99,,2013-09-03 10:53:00,
2013-09-03 06:12:00,50.0,49.0,30.03,NW,310,0.0,-999.0,97,-99.99,,,-99.99,,2013-09-03 11:12:00,
2013-09-03 06:23:00,50.0,49.0,30.03,NW,310,0.0,-999.0,97,-99.99,,,-99.99,,2013-09-03 11:23:00,
2013-09-03 06:42:00,49.0,48.0,30.03,NW,310,0.0,-999.0,97,-99.99,,,-99.99,,2013-09-03 11:42:00,
2013-09-03 06:52:00,50.0,49.0,30.05,NW,310,0.0,-999.0,97,-99.99,,,-99.99,,2013-09-03 11:52:00,
2013-09-03 07:12:00,50.0,49.0,30.05,NW,310,0.0,-999.0,97,-99.99,,,-99.99,,2013-09-03 12:12:00,
2013-09-03 07:22:00,50.0,49.0,30.05,NW,310,0.0,-999.0,98,-99.99,,,-99.99,,2013-09-03 12:22:00,
2013-09-03 07:52:00,52.0,51.0,30.06,NW,310,0.0,-999.0,98,-99.99,,,-99.99,,2013-09-03 12:52:00,
2013-09-03 08:11:00,53.0,52.0,30.06,NW,310,0.0,-999.0,98,-99.99,,,-99.99,,2013-09-03 13:11:00,
2013-09-03 08:22:00,54.0,53.0,30.05,NW,310,0.0,-999.0,98,-99.99,,,-99.99,,2013-09-03 13:22:00,
2013-09-03 08:42:00,56.0,55.0,30.05,NW,310,0.0,-999.0,98,-99.99,,,-99.99,,2013-09-03 13:42:00,
2013-09-03 08:52:00,58.0,58.0,30.06,NW,310,0.0,-999.0,99,-99.99,,,-99.99,,2013-09-03 13:52:00,
2013-09-03 09:11:00,60.0,59.0,30.06,NW,310,0.0,-999.0,98,-99.99,,,-99.99,,2013-09-03 14:11:00,
2013-09-03 09:21:00,62.0,59.0,30.06,NW,310,0.0,-999.0,91,-99.99,,,-99.99,,2013-09-03 14:21:00,
2013-09-03 09:52:00,65.0,58.0,30.06,SW,228,0.0,-999.0,78,-99.99,,,-99.99,,2013-09-03 14:52:00,
2013-09-03 10:22:00,67.0,58.0,30.07,South,176,0.0,-999.0,73,-99.99,,,-99.99,,2013-09-03 15:22:00,
2013-09-03 10:43:00,68.0,59.0,30.07,South,180,0.0,-999.0,74,-99.99,,,-99.99,,2013-09-03 15:43:00,
2013-09-03 10:54:00,69.0,60.0,30.07,South,180,0.0,-999.0,73,-99.99,,,-99.99,,2013-09-03 15:54:00,
2013-09-03 11:14:00,69.0,59.0,30.07,West,273,0.0,-999.0,70,-99.99,,,-99.99,,2013-09-03 16:14:00,
2013-09-03 11:24:00,69.0,58.0,30.08,West,278,0.0,-999.0,69,-99.99,,,-99.99,,2013-09-03 16:24:00,
2013-09-03 11:43:00,69.0,59.0,30.08,West,278,0.0,-999.0,70,-99.99,,,-99.99,,2013-09-03 16:43:00,
2013-09-03 11:54:00,68.0,58.0,30.08,West,272,0.0,-999.0,70,-99.99,,,-99.99,,2013-09-03 16:54:00,
2013-09-03 12:13:00,69.0,59.0,30.07,West,274,0.0,-999.0,71,-99.99,,,-99.99,,2013-09-03 17:13:00,
2013-09-03 12:23:00,69.0,58.0,30.07,West,274,0.0,-999.0,69,-99.99,,,-99.99,,2013-09-03 17:23:00,
2013-09-03 12:52:00,72.0,59.0,30.06,SW,219,0.0,-999.0,63,-99.99,,,-99.99,,2013-09-03 17:52:00,
2013-09-03 13:12:00,72.0,58.0,30.06,SW,223,0.0,-999.0,61,-99.99,,,-99.99,,2013-09-03 18:12:00,
2013-09-03 13:22:00,73.0,58.0,30.06,WSW,254,0.0,-999.0,60,-99.99,,,-99.99,,2013-09-03 18:22:00,
2013-09-03 13:43:00,72.0,59.0,30.05,West,278,1.0,-999.0,63,-99.99,,,-99.99,,2013-09-03 18:43:00,
2013-09-03 13:52:00,73.0,59.0,30.05,West,274,0.0,-999.0,61,-99.99,,,-99.99,,2013-09-03 18:52:00,
2013-09-03 14:11:00,74.0,61.0,30.04,West,268,0.0,-999.0,64,-99.99,,,-99.99,,2013-09-03 19:11:00,
2013-09-03 14:22:00,74.0,58.0,30.04,East,101,1.0,-999.0,58,-99.99,,,-99.99,,2013-09-03 19:22:00,
2013-09-03 14:42:00,75.0,61.0,30.03,West,272,0.0,-999.0,62,-99.99,,,-99.99,,2013-09-03 19:42:00,
2013-09-03 14:52:00,76.0,59.0,30.03,South,174,0.0,-999.0,55,-99.99,,,-99.99,,2013-09-03 19:52:00,
2013-09-03 15:11:00,76.0,58.0,30.02,SSW,200,1.0,-999.0,53,-99.99,,,-99.99,,2013-09-03 20:11:00,
2013-09-03 15:22:00,76.0,59.0,30.01,SW,216,0.0,-999.0,55,-99.99,,,-99.99,,2013-09-03 20:22:00,
2013-09-03 15:42:00,75.0,60.0,30.01,WSW,244,0.0,-999.0,59,-99.99,,,-99.99,,2013-09-03 20:42:00,
2013-09-03 15:53:00,75.0,58.0,30.01,WNW,286,1.0,-999.0,56,-99.99,,,-99.99,,2013-09-03 20:53:00,
2013-09-03 16:12:00,76.0,59.0,30.01,North,360,0.0,-999.0,55,-99.99,,,-99.99,,2013-09-03 21:12:00,
2013-09-03 16:22:00,77.0,59.0,30.01,West,277,0.0,-999.0,54,-99.99,,,-99.99,,2013-09-03 21:22:00,
2013-09-03 16:44:00,77.0,59.0,30.00,ESE,115,0.0,-999.0,53,-99.99,,,-99.99,,2013-09-03 21:44:00,
2013-09-03 16:54:00,77.0,60.0,30.00,West,278,0.0,-999.0,55,-99.99,,,-99.99,,2013-09-03 21:54:00,
2013-09-03 17:13:00,77.0,59.0,30.00,SE,140,0.0,-999.0,53,-99.99,,,-99.99,,2013-09-03 22:13:00,
2013-09-03 17:23:00,77.0,59.0,29.99,SW,231,0.0,-999.0,54,-99.99,,,-99.99,,2013-09-03 22:23:00,
2013-09-03 17:53:00,77.0,59.0,30.00,SW,234,0.0,-999.0,54,-99.99,,,-99.99,,2013-09-03 22:53:00,
2013-09-03 18:12:00,76.0,59.0,30.00,West,267,0.0,-999.0,55,-99.99,,,-99.99,,2013-09-03 23:12:00,
2013-09-03 18:22:00,74.0,60.0,29.99,West,268,0.0,-999.0,62,-99.99,,,-99.99,,2013-09-03 23:22:00,
2013-09-03 18:54:00,73.0,61.0,30.00,West,268,0.0,-999.0,66,-99.99,,,-99.99,,2013-09-03 23:54:00,
2013-09-03 19:12:00,74.0,61.0,30.00,West,268,0.0,-999.0,65,-99.99,,,-99.99,,2013-09-04 00:12:00,
2013-09-03 19:22:00,73.0,63.0,30.00,West,268,0.0,-999.0,70,-99.99,,,-99.99,,2013-09-04 00:22:00,
2013-09-03 19:42:00,71.0,61.0,30.00,West,268,0.0,-999.0,71,-99.99,,,-99.99,,2013-09-04 00:42:00,
2013-09-03 19:52:00,69.0,61.0,30.01,West,268,0.0,-999.0,75,-99.99,,,-99.99,,2013-09-04 00:52:00,
2013-09-03 21:22:00,60.0,57.0,30.01,West,268,0.0,-999.0,89,-99.99,,,-99.99,,2013-09-04 02:22:00,
2013-09-03 21:43:00,59.0,56.0,30.02,West,267,0.0,-999.0,90,-99.99,,,-99.99,,2013-09-04 02:43:00,
2013-09-03 21:52:00,58.0,55.0,30.02,West,268,0.0,-999.0,91,-99.99,,,-99.99,,2013-09-04 02:52:00,
2013-09-03 22:11:00,58.0,56.0,30.02,West,267,0.0,-999.0,92,-99.99,,,-99.99,,2013-09-04 03:11:00,
2013-09-03 22:22:00,57.0,55.0,30.02,West,268,0.0,-999.0,92,-99.99,,,-99.99,,2013-09-04 03:22:00,
2013-09-03 22:44:00,57.0,55.0,30.02,West,268,0.0,-999.0,93,-99.99,,,-99.99,,2013-09-04 03:44:00,
2013-09-03 22:54:00,57.0,55.0,30.02,West,268,0.0,-999.0,94,-99.99,,,-99.99,,2013-09-04 03:54:00,
2013-09-03 23:14:00,56.0,54.0,30.02,West,267,0.0,-999.0,94,-99.99,,,-99.99,,2013-09-04 04:14:00,
2013-09-03 23:44:00,56.0,55.0,30.02,West,268,0.0,-999.0,95,-99.99,,,-99.99,,2013-09-04 04:44:00,
2013-09-03 23:54:00,56.0,55.0,30.02,West,268,0.0,-999.0,96,-99.99,,,-99.99,,2013-09-04 04:54:00,